createdAt,value
2022-11-28T00:01:36.657Z,2.50
2022-11-28T00:04:05.145Z,2.51
2022-11-28T00:06:33.467Z,2.59
2022-11-28T00:09:01.968Z,2.64
2022-11-28T00:11:31.612Z,2.64
2022-11-28T00:14:00.099Z,2.58
2022-11-28T00:16:28.370Z,2.53
2022-11-28T00:18:56.771Z,2.50
2022-11-28T00:21:24.940Z,2.48
2022-11-28T00:23:53.199Z,2.44
2022-11-28T00:26:23.353Z,2.49
2022-11-28T00:28:52.954Z,2.49
2022-11-28T00:31:22.650Z,2.49
2022-11-28T00:33:50.847Z,2.46
2022-11-28T00:36:19.141Z,2.45
2022-11-28T00:38:47.318Z,2.46
2022-11-28T00:41:16.634Z,2.40
2022-11-28T00:43:45.584Z,2.46
2022-11-28T00:46:15.601Z,2.45
2022-11-28T00:48:43.937Z,2.42
2022-11-28T00:51:13.267Z,2.42
2022-11-28T00:53:42.558Z,2.45
2022-11-28T00:56:11.537Z,2.40
2022-11-28T00:58:39.808Z,2.38
2022-11-28T01:01:11.464Z,2.44
2022-11-28T01:03:41.200Z,2.45
2022-11-28T01:06:10.132Z,2.54
2022-11-28T01:08:38.414Z,2.57
2022-11-28T01:11:11.529Z,2.61
2022-11-28T01:13:39.797Z,2.57
2022-11-28T01:16:08.541Z,2.55
2022-11-28T01:18:36.979Z,2.55
2022-11-28T01:21:07.253Z,2.57
2022-11-28T01:23:35.636Z,2.59
2022-11-28T01:26:03.868Z,2.61
2022-11-28T01:28:32.094Z,2.65
2022-11-28T01:31:04.905Z,2.72
2022-11-28T01:33:33.515Z,2.77
2022-11-28T01:36:01.878Z,2.80
2022-11-28T01:38:31.814Z,2.80
2022-11-28T01:41:00.050Z,2.78
2022-11-28T01:43:28.373Z,2.82
2022-11-28T01:45:56.640Z,2.85
2022-11-28T01:48:26.819Z,2.86
2022-11-28T01:50:59.238Z,2.84
2022-11-28T01:53:27.625Z,2.89
2022-11-28T01:55:58.529Z,2.91
2022-11-28T01:58:26.787Z,2.89
2022-11-28T02:00:55.579Z,2.89
2022-11-28T02:03:26.288Z,2.89
2022-11-28T02:05:54.507Z,2.87
2022-11-28T02:08:22.729Z,2.86
2022-11-28T02:11:03.419Z,2.89
2022-11-28T02:13:37.391Z,2.88
2022-11-28T02:16:12.195Z,2.86
2022-11-28T02:18:50.315Z,2.86
2022-11-28T02:21:27.029Z,2.90
2022-11-28T02:24:09.762Z,2.89
2022-11-28T02:27:07.452Z,2.89
2022-11-28T02:29:57.031Z,2.88
2022-11-28T02:32:37.451Z,2.90
2022-11-28T02:35:08.583Z,2.93
2022-11-28T02:37:40.212Z,2.92
2022-11-28T02:40:10.154Z,2.93
2022-11-28T02:42:43.655Z,2.96
2022-11-28T02:45:13.370Z,2.95
2022-11-28T02:47:44.918Z,2.98
2022-11-28T02:50:14.062Z,3.00
2022-11-28T02:52:43.665Z,3.02
2022-11-28T02:55:12.294Z,3.01
2022-11-28T02:57:41.209Z,3.01
2022-11-28T03:00:29.759Z,3.01
2022-11-28T03:03:24.480Z,3.02
2022-11-28T03:05:55.622Z,3.02
2022-11-28T03:08:33.259Z,3.02
2022-11-28T03:11:05.011Z,3.01
2022-11-28T03:13:37.311Z,3.03
2022-11-28T03:16:10.565Z,3.08
2022-11-28T03:18:40.924Z,3.14
2022-11-28T03:21:11.508Z,3.14
2022-11-28T03:23:43.995Z,3.15
2022-11-28T03:26:14.062Z,3.15
2022-11-28T03:28:44.361Z,3.17
2022-11-28T03:31:13.953Z,3.18
2022-11-28T03:33:45.782Z,3.21
2022-11-28T03:36:16.385Z,3.23
2022-11-28T03:38:46.449Z,3.21
2022-11-28T03:41:16.816Z,3.20
2022-11-28T03:43:47.958Z,3.17
2022-11-28T03:46:17.894Z,3.18
2022-11-28T03:48:49.088Z,3.24
2022-11-28T03:51:19.860Z,3.26
2022-11-28T03:53:51.848Z,3.27
2022-11-28T03:56:23.206Z,3.27
2022-11-28T03:58:53.279Z,3.27
2022-11-28T04:01:28.101Z,3.31
2022-11-28T04:04:01.109Z,3.35
2022-11-28T04:06:31.342Z,3.32
2022-11-28T04:09:01.849Z,3.28
2022-11-28T04:11:32.460Z,3.25
2022-11-28T04:14:02.041Z,3.26
2022-11-28T04:16:32.561Z,3.24
2022-11-28T04:19:05.784Z,3.22
2022-11-28T04:21:35.368Z,3.25
2022-11-28T04:24:04.692Z,3.25
2022-11-28T04:26:34.824Z,3.26
2022-11-28T04:29:03.883Z,3.24
2022-11-28T04:31:32.730Z,3.25
2022-11-28T04:34:04.019Z,3.24
2022-11-28T04:36:32.250Z,3.27
2022-11-28T04:39:00.502Z,3.28
2022-11-28T04:41:31.182Z,3.32
2022-11-28T04:44:01.331Z,3.33
2022-11-28T04:46:32.751Z,3.32
2022-11-28T04:49:02.360Z,3.37
2022-11-28T04:51:33.844Z,3.38
2022-11-28T04:54:02.854Z,3.40
2022-11-28T04:56:33.282Z,3.44
2022-11-28T04:59:01.620Z,3.46
2022-11-28T05:01:30.889Z,3.47
2022-11-28T05:03:59.862Z,3.45
2022-11-28T05:06:30.614Z,3.46
2022-11-28T05:08:58.890Z,3.49
2022-11-28T05:11:27.102Z,3.48
2022-11-28T05:13:55.618Z,3.48
2022-11-28T05:16:23.892Z,3.48
2022-11-28T05:18:52.161Z,3.51
2022-11-28T05:21:20.347Z,3.50
2022-11-28T05:23:49.962Z,3.53
2022-11-28T05:26:19.165Z,3.55
2022-11-28T05:28:47.421Z,3.59
2022-11-28T05:31:15.662Z,3.61
2022-11-28T05:33:43.878Z,3.62
2022-11-28T05:36:13.670Z,3.67
2022-11-28T05:38:42.021Z,3.69
2022-11-28T05:41:11.953Z,3.68
2022-11-28T05:43:40.273Z,3.69
2022-11-28T05:46:08.541Z,3.69
2022-11-28T05:48:36.851Z,3.68
2022-11-28T05:51:05.441Z,3.72
2022-11-28T05:53:33.638Z,3.70
2022-11-28T05:56:06.831Z,3.71
2022-11-28T05:58:36.486Z,3.70
2022-11-28T06:01:11.301Z,3.68
2022-11-28T06:03:39.511Z,3.68
2022-11-28T06:06:12.429Z,3.65
2022-11-28T06:08:41.128Z,3.62
2022-11-28T06:11:09.457Z,3.60
2022-11-28T06:13:39.079Z,3.56
2022-11-28T06:16:09.426Z,3.53
2022-11-28T06:18:37.829Z,3.56
2022-11-28T06:21:06.790Z,3.55
2022-11-28T06:23:35.289Z,3.55
2022-11-28T06:26:06.296Z,3.54
2022-11-28T06:28:34.538Z,3.52
2022-11-28T06:31:04.293Z,3.51
2022-11-28T06:33:32.487Z,3.53
2022-11-28T06:36:01.897Z,3.52
2022-11-28T06:38:30.150Z,3.51
2022-11-28T06:40:58.863Z,3.52
2022-11-28T06:43:27.051Z,3.53
2022-11-28T06:45:55.312Z,3.54
2022-11-28T06:48:24.966Z,3.58
2022-11-28T06:50:53.626Z,3.60
2022-11-28T06:53:21.973Z,3.67
2022-11-28T06:55:50.204Z,3.68
2022-11-28T06:58:18.394Z,3.68
2022-11-28T07:00:46.655Z,3.69
2022-11-28T07:03:15.179Z,3.74
2022-11-28T07:05:44.765Z,3.81
2022-11-28T07:08:12.957Z,3.87
2022-11-28T07:10:41.242Z,3.91
2022-11-28T07:13:10.283Z,3.97
2022-11-28T07:15:38.536Z,3.99
2022-11-28T07:18:07.296Z,4.02
2022-11-28T07:20:35.504Z,4.03
2022-11-28T07:23:05.563Z,4.09
2022-11-28T07:25:33.842Z,4.10
2022-11-28T07:28:02.085Z,4.12
2022-11-28T07:30:30.577Z,4.09
2022-11-28T07:32:58.821Z,4.06
2022-11-28T07:35:27.062Z,4.08
2022-11-28T07:37:55.266Z,4.08
2022-11-28T07:40:24.904Z,4.06
2022-11-28T07:42:53.128Z,4.07
2022-11-28T07:45:22.893Z,4.08
2022-11-28T07:47:51.226Z,4.07
2022-11-28T07:50:19.563Z,4.08
2022-11-28T07:52:49.856Z,4.09
2022-11-28T07:55:18.108Z,4.07
2022-11-28T07:57:47.696Z,4.09
2022-11-28T08:00:17.578Z,4.10
2022-11-28T08:02:45.812Z,4.11
2022-11-28T08:05:14.070Z,4.13
2022-11-28T08:07:42.394Z,4.14
2022-11-28T08:10:11.031Z,4.16
2022-11-28T08:12:39.534Z,4.17
2022-11-28T08:15:09.970Z,4.17
2022-11-28T08:17:38.184Z,4.18
2022-11-28T08:20:07.687Z,4.15
2022-11-28T08:22:35.888Z,4.14
2022-11-28T08:25:04.053Z,4.12
2022-11-28T08:27:33.035Z,4.12
2022-11-28T08:30:01.252Z,4.08
2022-11-28T08:32:31.860Z,4.05
2022-11-28T08:35:00.124Z,4.06
2022-11-28T08:37:29.405Z,4.04
2022-11-28T08:39:57.878Z,4.06
2022-11-28T08:42:26.106Z,4.10
2022-11-28T08:44:54.279Z,4.13
2022-11-28T08:47:22.484Z,4.13
2022-11-28T08:49:52.057Z,4.15
2022-11-28T08:52:20.263Z,4.15
2022-11-28T08:54:48.738Z,4.19
2022-11-28T08:57:16.977Z,4.19
2022-11-28T08:59:45.502Z,4.20
2022-11-28T09:02:13.923Z,4.29
2022-11-28T09:04:42.152Z,4.33
2022-11-28T09:07:11.995Z,4.34
2022-11-28T09:09:40.235Z,4.37
2022-11-28T09:12:09.127Z,4.39
2022-11-28T09:14:37.902Z,4.41
2022-11-28T09:17:06.139Z,4.42
2022-11-28T09:19:34.336Z,4.42
2022-11-28T09:22:02.877Z,4.42
2022-11-28T09:24:32.535Z,4.40
2022-11-28T09:27:00.762Z,4.40
2022-11-28T09:29:29.371Z,4.42
2022-11-28T09:31:57.705Z,4.43
2022-11-28T09:34:26.238Z,4.42
2022-11-28T09:36:54.464Z,4.43
2022-11-28T09:39:22.865Z,4.38
2022-11-28T09:41:59.654Z,4.35
2022-11-28T09:44:29.909Z,4.31
2022-11-28T09:47:01.195Z,4.35
2022-11-28T09:49:40.259Z,4.39
2022-11-28T09:52:22.612Z,4.42
2022-11-28T09:54:53.677Z,4.46
2022-11-28T09:57:27.512Z,4.48
2022-11-28T09:59:55.740Z,4.50
2022-11-28T10:02:27.321Z,4.53
2022-11-28T10:05:02.263Z,4.64
2022-11-28T10:07:33.200Z,4.76
2022-11-28T10:10:04.669Z,4.91
2022-11-28T10:12:40.330Z,5.02
2022-11-28T10:15:20.327Z,5.09
2022-11-28T10:17:51.506Z,5.13
2022-11-28T10:20:21.045Z,5.16
2022-11-28T10:22:51.744Z,5.24
2022-11-28T10:25:21.348Z,5.30
2022-11-28T10:27:50.994Z,5.31
2022-11-28T10:30:23.882Z,5.27
2022-11-28T10:32:56.806Z,5.29
2022-11-28T10:35:28.737Z,5.29
2022-11-28T10:37:57.225Z,5.19
2022-11-28T10:40:29.384Z,5.06
2022-11-28T10:43:01.335Z,4.97
2022-11-28T10:45:32.688Z,4.79
2022-11-28T10:48:38.033Z,4.73
2022-11-28T10:51:00.470Z,4.62
2022-11-28T10:53:36.736Z,4.63
2022-11-28T10:56:11.835Z,4.66
2022-11-28T10:58:43.762Z,4.68
2022-11-28T11:01:12.599Z,4.76
2022-11-28T11:03:40.929Z,4.82
2022-11-28T11:06:09.459Z,4.87
2022-11-28T11:08:38.580Z,5.00
2022-11-28T11:11:08.254Z,5.01
2022-11-28T11:13:37.148Z,5.10
2022-11-28T11:16:08.062Z,5.12
2022-11-28T11:18:37.445Z,5.12
2022-11-28T11:21:09.478Z,5.15
2022-11-28T11:23:38.592Z,5.21
2022-11-28T11:26:10.256Z,5.25
2022-11-28T11:28:42.147Z,5.27
2022-11-28T11:31:19.834Z,5.24
2022-11-28T11:33:48.140Z,5.23
2022-11-28T11:36:28.372Z,5.19
2022-11-28T11:39:08.078Z,5.15
2022-11-28T11:41:36.260Z,5.21
2022-11-28T11:44:34.521Z,5.14
2022-11-28T11:47:05.632Z,5.10
2022-11-28T11:49:35.312Z,5.13
2022-11-28T11:52:05.142Z,5.10
2022-11-28T11:54:33.471Z,5.05
2022-11-28T11:57:30.646Z,4.95
2022-11-28T11:59:50.949Z,4.95
2022-11-28T12:02:24.893Z,4.93
2022-11-28T12:04:56.226Z,4.89
2022-11-28T12:07:29.174Z,4.87
2022-11-28T12:10:01.726Z,4.83
2022-11-28T12:12:32.838Z,4.73
2022-11-28T12:15:00.994Z,4.64
2022-11-28T12:20:51.106Z,4.58
2022-11-28T12:23:29.712Z,4.56
2022-11-28T12:26:00.739Z,4.53
2022-11-28T12:28:36.155Z,4.48
2022-11-28T12:31:08.906Z,4.45
2022-11-28T12:33:44.609Z,4.44
2022-11-28T12:36:16.048Z,4.43
2022-11-28T12:38:55.741Z,4.44
2022-11-28T12:41:34.035Z,4.45
2022-11-28T12:44:04.822Z,4.46
2022-11-28T12:46:36.852Z,4.42
2022-11-28T12:49:14.189Z,4.46
2022-11-28T12:51:49.566Z,4.50
2022-11-28T12:54:34.528Z,4.43
2022-11-28T12:57:05.099Z,4.35
2022-11-28T12:59:35.969Z,4.34
2022-11-28T13:02:16.531Z,4.27
2022-11-28T13:04:58.732Z,4.24
2022-11-28T13:07:30.627Z,4.17
2022-11-28T13:10:03.586Z,4.12
2022-11-28T13:12:41.108Z,4.06
2022-11-28T13:15:11.545Z,4.02
2022-11-28T13:17:41.869Z,3.95
2022-11-28T13:20:19.568Z,3.92
2022-11-28T13:22:56.360Z,3.89
2022-11-28T13:25:27.696Z,3.84
2022-11-28T13:27:58.848Z,3.88
2022-11-28T13:30:28.745Z,3.86
2022-11-28T13:33:02.705Z,3.87
2022-11-28T13:35:32.264Z,3.87
2022-11-28T13:40:52.863Z,3.91
2022-11-28T13:43:24.817Z,3.86
2022-11-28T13:45:53.039Z,3.83
2022-11-28T13:51:43.363Z,3.88
2022-11-28T13:54:45.750Z,3.84
2022-11-28T13:57:21.567Z,3.85
2022-11-28T13:59:55.009Z,3.86
2022-11-28T14:02:34.850Z,3.80
2022-11-28T14:05:03.348Z,3.76
2022-11-28T14:07:34.092Z,3.75
2022-11-28T14:10:24.396Z,3.67
2022-11-28T14:12:59.408Z,3.67
2022-11-28T14:15:31.627Z,3.66
2022-11-28T14:18:54.269Z,3.66
2022-11-28T14:21:09.529Z,3.65
2022-11-28T14:23:42.357Z,3.67
2022-11-28T14:26:14.209Z,3.62
2022-11-28T14:28:43.966Z,3.58
2022-11-28T14:31:21.983Z,3.54
2022-11-28T14:33:50.281Z,3.53
2022-11-28T14:36:28.905Z,3.49
2022-11-28T14:39:26.473Z,3.50
2022-11-28T14:42:52.024Z,3.40
2022-11-28T14:45:51.139Z,3.31
2022-11-28T14:48:20.860Z,3.28
2022-11-28T14:50:54.600Z,3.24
2022-11-28T14:53:52.010Z,3.25
2022-11-28T14:56:30.955Z,3.19
2022-11-28T14:59:01.734Z,3.19
2022-11-28T15:01:46.368Z,3.13
2022-11-28T15:04:31.917Z,3.06
2022-11-28T15:07:01.129Z,3.06
2022-11-28T15:09:31.403Z,3.03
2022-11-28T15:12:13.003Z,2.93
2022-11-28T15:14:42.622Z,2.86
2022-11-28T15:17:12.850Z,2.86
2022-11-28T15:19:44.900Z,2.87
2022-11-28T15:22:31.383Z,2.88
2022-11-28T15:25:00.130Z,2.88
2022-11-28T15:27:30.024Z,2.86
2022-11-28T15:30:00.052Z,2.84
2022-11-28T15:32:29.863Z,2.82
2022-11-28T15:35:01.195Z,2.76
2022-11-28T15:37:32.170Z,2.77
2022-11-28T15:40:00.488Z,2.75
2022-11-28T15:42:32.612Z,2.73
2022-11-28T15:45:02.100Z,2.72
2022-11-28T15:47:30.601Z,2.74
2022-11-28T15:50:00.863Z,2.73
2022-11-28T15:52:29.242Z,2.75
2022-11-28T15:54:57.632Z,2.76
2022-11-28T15:57:28.449Z,2.78
2022-11-28T15:59:58.332Z,2.78
2022-11-28T16:02:29.387Z,2.78
2022-11-28T16:05:01.468Z,2.77
2022-11-28T16:07:29.848Z,2.75
2022-11-28T16:09:59.863Z,2.79
2022-11-28T16:12:28.396Z,2.77
2022-11-28T16:15:03.430Z,2.74
2022-11-28T16:17:34.016Z,2.76
2022-11-28T16:20:02.659Z,2.72
2022-11-28T16:22:34.027Z,2.73
2022-11-28T16:25:13.093Z,2.70
2022-11-28T16:27:42.752Z,2.71
2022-11-28T16:33:04.726Z,2.71
2022-11-28T16:35:37.851Z,2.73
2022-11-28T16:38:07.244Z,2.70
2022-11-28T16:40:35.549Z,2.73
2022-11-28T16:43:06.233Z,2.70
2022-11-28T16:45:34.689Z,2.72
2022-11-28T16:48:10.005Z,2.72
2022-11-28T16:50:38.517Z,2.72
2022-11-28T16:53:07.092Z,2.73
2022-11-28T16:55:44.307Z,2.78
2022-11-28T16:58:14.684Z,2.75
2022-11-28T17:00:44.432Z,2.73
2022-11-28T17:03:39.455Z,2.72
2022-11-28T17:06:10.209Z,2.72
2022-11-28T17:08:38.927Z,2.73
2022-11-28T17:11:07.426Z,2.71
2022-11-28T17:13:35.791Z,2.72
2022-11-28T17:16:04.131Z,2.71
2022-11-28T17:18:34.000Z,2.69
2022-11-28T17:21:02.681Z,2.67
2022-11-28T17:23:31.035Z,2.70
2022-11-28T17:25:59.318Z,2.71
2022-11-28T17:28:29.201Z,2.71
2022-11-28T17:30:57.707Z,2.72
2022-11-28T17:33:26.011Z,2.71
2022-11-28T17:35:58.361Z,2.71
2022-11-28T17:38:27.055Z,2.73
2022-11-28T17:40:55.339Z,2.74
2022-11-28T17:43:23.734Z,2.76
2022-11-28T17:45:52.051Z,2.73
2022-11-28T17:48:20.702Z,2.74
2022-11-28T17:50:56.548Z,2.77
2022-11-28T17:53:40.419Z,2.79
2022-11-28T17:56:11.897Z,2.79
2022-11-28T17:58:42.581Z,2.80
2022-11-28T18:01:17.921Z,2.81
2022-11-28T18:03:46.364Z,2.82
2022-11-28T18:06:18.549Z,2.82
2022-11-28T18:08:49.902Z,2.81
2022-11-28T18:11:30.711Z,2.83
2022-11-28T18:14:01.492Z,2.86
2022-11-28T18:16:36.243Z,2.86
2022-11-28T18:19:04.950Z,2.85
2022-11-28T18:21:33.640Z,2.86
2022-11-28T18:24:04.786Z,2.86
2022-11-28T18:26:33.108Z,2.87
2022-11-28T18:29:01.776Z,2.88
2022-11-28T18:31:30.585Z,2.89
2022-11-28T18:34:02.315Z,2.89
2022-11-28T18:36:36.645Z,2.92
2022-11-28T18:39:09.025Z,2.94
2022-11-28T18:41:38.082Z,2.95
2022-11-28T18:44:06.590Z,2.96
2022-11-28T18:46:35.342Z,2.97
2022-11-28T18:49:03.860Z,2.98
2022-11-28T18:51:33.518Z,2.97
2022-11-28T18:54:03.623Z,2.98
2022-11-28T18:56:34.157Z,2.98
2022-11-28T18:59:02.491Z,2.96
2022-11-28T19:01:31.424Z,2.94
2022-11-28T19:04:01.164Z,2.93
2022-11-28T19:06:29.515Z,2.96
2022-11-28T19:08:59.331Z,2.98
2022-11-28T19:11:28.695Z,3.03
2022-11-28T19:13:59.417Z,3.00
2022-11-28T19:16:31.779Z,2.96
2022-11-28T19:19:00.167Z,2.93
2022-11-28T19:21:31.627Z,2.91
2022-11-28T19:24:00.512Z,2.90
2022-11-28T19:26:30.969Z,2.89
2022-11-28T19:29:02.551Z,2.91
2022-11-28T19:31:31.985Z,2.91
2022-11-28T19:34:02.010Z,2.93
2022-11-28T19:36:32.864Z,2.93
2022-11-28T19:39:04.116Z,2.93
2022-11-28T19:41:32.453Z,2.95
2022-11-28T19:44:02.167Z,2.97
2022-11-28T19:46:35.342Z,2.98
2022-11-28T19:49:05.205Z,3.01
2022-11-28T19:51:34.666Z,2.99
2022-11-28T19:54:04.077Z,2.97
2022-11-28T19:56:34.660Z,2.97
2022-11-28T19:59:05.006Z,2.96
2022-11-28T20:01:35.519Z,2.93
2022-11-28T20:04:03.889Z,2.91
2022-11-28T20:06:32.875Z,2.90
2022-11-28T20:09:02.328Z,2.91
2022-11-28T20:11:31.423Z,2.91
2022-11-28T20:14:01.234Z,2.89
2022-11-28T20:16:31.525Z,2.90
2022-11-28T20:19:01.077Z,2.89
2022-11-28T20:21:29.960Z,2.89
2022-11-28T20:23:59.647Z,2.89
2022-11-28T20:26:29.682Z,2.87
2022-11-28T20:28:58.607Z,2.88
2022-11-28T20:31:30.835Z,2.88
2022-11-28T20:34:01.484Z,2.89
2022-11-28T20:36:31.032Z,2.90
2022-11-28T20:38:59.834Z,2.91
2022-11-28T20:41:28.410Z,2.91
2022-11-28T20:43:56.727Z,2.93
2022-11-28T20:46:27.284Z,2.95
2022-11-28T20:48:56.239Z,2.94
2022-11-28T20:51:26.455Z,2.95
2022-11-28T20:53:54.800Z,2.97
2022-11-28T20:56:23.695Z,2.99
2022-11-28T20:58:52.119Z,3.00
2022-11-28T21:01:22.062Z,2.97
2022-11-28T21:03:50.532Z,2.95
2022-11-28T21:06:19.096Z,2.90
2022-11-28T21:08:48.805Z,2.87
2022-11-28T21:11:36.973Z,2.88
2022-11-28T21:14:06.397Z,2.86
2022-11-28T21:16:35.239Z,2.86
2022-11-28T21:19:05.032Z,2.86
2022-11-28T21:21:34.099Z,2.86
2022-11-28T21:24:04.729Z,2.89
2022-11-28T21:26:39.111Z,2.86
2022-11-28T21:29:10.360Z,2.84
2022-11-28T21:31:41.278Z,2.87
2022-11-28T21:34:11.033Z,2.84
2022-11-28T21:36:39.315Z,2.84
2022-11-28T21:39:09.244Z,2.85
2022-11-28T21:41:37.551Z,2.87
2022-11-28T21:44:06.489Z,2.86
2022-11-28T21:46:34.867Z,2.87
2022-11-28T21:49:03.237Z,2.89
2022-11-28T21:51:31.505Z,2.89
2022-11-28T21:54:02.142Z,2.86
2022-11-28T21:56:32.251Z,2.88
2022-11-28T21:59:00.494Z,2.87
2022-11-28T22:01:29.919Z,2.89
2022-11-28T22:04:02.374Z,2.94
2022-11-28T22:06:32.169Z,2.93
2022-11-28T22:09:07.085Z,2.98
2022-11-28T22:11:39.392Z,2.97
2022-11-28T22:14:07.960Z,2.96
2022-11-28T22:16:36.824Z,2.95
2022-11-28T22:19:05.694Z,2.94
2022-11-28T22:21:53.599Z,2.92
2022-11-28T22:24:24.679Z,2.90
2022-11-28T22:26:56.091Z,2.91
2022-11-28T22:29:25.244Z,2.92
2022-11-28T22:31:55.078Z,2.94
2022-11-28T22:34:24.655Z,2.96
2022-11-28T22:36:53.332Z,2.99
2022-11-28T22:39:22.628Z,2.99
2022-11-28T22:41:51.111Z,3.01
2022-11-28T22:44:22.333Z,3.02
2022-11-28T22:46:50.634Z,3.02
2022-11-28T22:49:20.041Z,3.02
2022-11-28T22:51:49.017Z,3.02
2022-11-28T22:54:17.590Z,3.02
2022-11-28T22:56:45.963Z,3.06
2022-11-28T22:59:15.027Z,3.10
2022-11-28T23:01:45.139Z,3.08
2022-11-28T23:04:16.321Z,3.09
2022-11-28T23:06:45.158Z,3.08
2022-11-28T23:09:14.724Z,3.09
2022-11-28T23:11:43.157Z,3.10
2022-11-28T23:14:12.997Z,3.10
2022-11-28T23:16:41.932Z,3.09
2022-11-28T23:19:13.691Z,3.11
2022-11-28T23:21:42.874Z,3.11
2022-11-28T23:24:13.813Z,3.13
2022-11-28T23:26:42.401Z,3.15
2022-11-28T23:29:10.846Z,3.16
2022-11-28T23:31:39.926Z,3.17
2022-11-28T23:34:09.194Z,3.16
2022-11-28T23:36:42.817Z,3.15
2022-11-28T23:39:13.218Z,3.14
2022-11-28T23:41:41.483Z,3.14
2022-11-28T23:44:11.128Z,3.13
2022-11-28T23:46:39.356Z,3.12
2022-11-28T23:49:07.800Z,3.11
2022-11-28T23:51:36.128Z,3.07
2022-11-28T23:54:05.970Z,3.06
2022-11-28T23:56:35.145Z,3.08
2022-11-28T23:59:06.107Z,3.06
